sensor_id;sensor_type;location;lat;lon;timestamp;pressure;altitude;pressure_sealevel;temperature;humidity
54872;BME280;43914;57.680;11.982;2023-03-26T00:00:46;98763.39;;;1.33;100.00
54872;BME280;43914;57.680;11.982;2023-03-26T00:03:16;98765.27;;;1.30;100.00
54872;BME280;43914;57.680;11.982;2023-03-26T00:05:43;98770.45;;;1.27;100.00
54872;BME280;43914;57.680;11.982;2023-03-26T00:08:08;98769.18;;;1.23;100.00
54872;BME280;43914;57.680;11.982;2023-03-26T00:10:37;98775.77;;;1.21;100.00
54872;BME280;43914;57.680;11.982;2023-03-26T00:13:07;98776.05;;;1.17;100.00
54872;BME280;43914;57.680;11.982;2023-03-26T00:15:34;98773.04;;;1.12;100.00
54872;BME280;43914;57.680;11.982;2023-03-26T00:18:00;98773.11;;;1.11;100.00
54872;BME280;43914;57.680;11.982;2023-03-26T00:20:26;98772.94;;;1.11;100.00
54872;BME280;43914;57.680;11.982;2023-03-26T00:22:53;98775.09;;;1.13;100.00
54872;BME280;43914;57.680;11.982;2023-03-26T00:25:20;98777.14;;;1.13;100.00
54872;BME280;43914;57.680;11.982;2023-03-26T00:27:46;98777.37;;;1.13;100.00
54872;BME280;43914;57.680;11.982;2023-03-26T00:30:14;98775.68;;;1.12;100.00
54872;BME280;43914;57.680;11.982;2023-03-26T00:32:41;98774.67;;;1.07;100.00
54872;BME280;43914;57.680;11.982;2023-03-26T00:35:07;98771.91;;;1.02;100.00
54872;BME280;43914;57.680;11.982;2023-03-26T00:37:32;98771.91;;;1.02;100.00
54872;BME280;43914;57.680;11.982;2023-03-26T00:39:58;98772.13;;;0.98;100.00
54872;BME280;43914;57.680;11.982;2023-03-26T00:42:28;98773.11;;;0.97;100.00
54872;BME280;43914;57.680;11.982;2023-03-26T00:44:54;98774.75;;;0.97;100.00
54872;BME280;43914;57.680;11.982;2023-03-26T00:47:26;98776.77;;;0.94;100.00
54872;BME280;43914;57.680;11.982;2023-03-26T00:49:53;98778.85;;;0.93;100.00
54872;BME280;43914;57.680;11.982;2023-03-26T00:52:19;98785.48;;;0.89;100.00
54872;BME280;43914;57.680;11.982;2023-03-26T00:54:46;98788.98;;;0.87;100.00
54872;BME280;43914;57.680;11.982;2023-03-26T00:57:13;98792.05;;;0.85;100.00
54872;BME280;43914;57.680;11.982;2023-03-26T00:59:39;98794.07;;;0.83;100.00
54872;BME280;43914;57.680;11.982;2023-03-26T01:02:06;98791.73;;;0.82;100.00
54872;BME280;43914;57.680;11.982;2023-03-26T01:04:35;98794.56;;;0.81;100.00
54872;BME280;43914;57.680;11.982;2023-03-26T01:07:10;98792.16;;;0.81;100.00
54872;BME280;43914;57.680;11.982;2023-03-26T01:09:39;98792.79;;;0.80;100.00
54872;BME280;43914;57.680;11.982;2023-03-26T01:12:13;98794.80;;;0.78;100.00
54872;BME280;43914;57.680;11.982;2023-03-26T01:14:44;98793.22;;;0.76;100.00
54872;BME280;43914;57.680;11.982;2023-03-26T01:17:11;98793.41;;;0.74;100.00
54872;BME280;43914;57.680;11.982;2023-03-26T01:19:46;98793.48;;;0.74;100.00
54872;BME280;43914;57.680;11.982;2023-03-26T01:22:23;98794.70;;;0.74;100.00
54872;BME280;43914;57.680;11.982;2023-03-26T01:24:49;98796.63;;;0.74;100.00
54872;BME280;43914;57.680;11.982;2023-03-26T01:32:57;98795.77;;;0.70;100.00
54872;BME280;43914;57.680;11.982;2023-03-26T01:35:51;98792.41;;;0.69;100.00
54872;BME280;43914;57.680;11.982;2023-03-26T01:41:38;98790.01;;;0.67;100.00
54872;BME280;43914;57.680;11.982;2023-03-26T01:46:46;98794.66;;;0.68;100.00
54872;BME280;43914;57.680;11.982;2023-03-26T01:49:12;98796.34;;;0.70;100.00
54872;BME280;43914;57.680;11.982;2023-03-26T01:51:40;98799.97;;;0.71;100.00
54872;BME280;43914;57.680;11.982;2023-03-26T01:54:10;98796.48;;;0.69;100.00
54872;BME280;43914;57.680;11.982;2023-03-26T02:02:08;98797.28;;;0.66;100.00
54872;BME280;43914;57.680;11.982;2023-03-26T02:07:20;98797.10;;;0.71;100.00
54872;BME280;43914;57.680;11.982;2023-03-26T02:09:56;98792.73;;;0.71;100.00
54872;BME280;43914;57.680;11.982;2023-03-26T02:12:24;98797.23;;;0.71;100.00
54872;BME280;43914;57.680;11.982;2023-03-26T02:14:51;98795.93;;;0.74;100.00
54872;BME280;43914;57.680;11.982;2023-03-26T02:17:19;98796.04;;;0.73;100.00
54872;BME280;43914;57.680;11.982;2023-03-26T02:19:48;98795.64;;;0.73;100.00
54872;BME280;43914;57.680;11.982;2023-03-26T02:22:15;98796.73;;;0.71;100.00
54872;BME280;43914;57.680;11.982;2023-03-26T02:24:42;98796.73;;;0.69;100.00
54872;BME280;43914;57.680;11.982;2023-03-26T02:27:08;98796.30;;;0.69;100.00
54872;BME280;43914;57.680;11.982;2023-03-26T02:29:34;98794.99;;;0.68;100.00
54872;BME280;43914;57.680;11.982;2023-03-26T02:32:03;98792.81;;;0.65;100.00
54872;BME280;43914;57.680;11.982;2023-03-26T02:34:29;98791.03;;;0.64;100.00
54872;BME280;43914;57.680;11.982;2023-03-26T02:36:55;98791.63;;;0.65;100.00
54872;BME280;43914;57.680;11.982;2023-03-26T02:39:24;98792.35;;;0.63;100.00
54872;BME280;43914;57.680;11.982;2023-03-26T02:41:52;98791.16;;;0.61;100.00
54872;BME280;43914;57.680;11.982;2023-03-26T02:44:18;98795.33;;;0.63;100.00
54872;BME280;43914;57.680;11.982;2023-03-26T02:46:44;98794.64;;;0.65;100.00
54872;BME280;43914;57.680;11.982;2023-03-26T02:49:09;98797.59;;;0.63;100.00
54872;BME280;43914;57.680;11.982;2023-03-26T02:51:35;98800.05;;;0.63;100.00
54872;BME280;43914;57.680;11.982;2023-03-26T02:54:02;98798.04;;;0.64;100.00
54872;BME280;43914;57.680;11.982;2023-03-26T02:56:31;98804.95;;;0.64;100.00
54872;BME280;43914;57.680;11.982;2023-03-26T02:58:56;98804.19;;;0.63;100.00
54872;BME280;43914;57.680;11.982;2023-03-26T03:01:22;98802.10;;;0.61;100.00
54872;BME280;43914;57.680;11.982;2023-03-26T03:03:47;98800.55;;;0.59;100.00
54872;BME280;43914;57.680;11.982;2023-03-26T03:06:15;98800.93;;;0.57;100.00
54872;BME280;43914;57.680;11.982;2023-03-26T03:08:44;98806.27;;;0.58;100.00
54872;BME280;43914;57.680;11.982;2023-03-26T03:11:17;98811.23;;;0.58;100.00
54872;BME280;43914;57.680;11.982;2023-03-26T03:13:46;98813.20;;;0.56;100.00
54872;BME280;43914;57.680;11.982;2023-03-26T03:16:13;98813.59;;;0.57;100.00
54872;BME280;43914;57.680;11.982;2023-03-26T03:18:38;98814.96;;;0.57;100.00
54872;BME280;43914;57.680;11.982;2023-03-26T03:21:05;98814.98;;;0.56;100.00
54872;BME280;43914;57.680;11.982;2023-03-26T03:23:31;98810.61;;;0.55;100.00
54872;BME280;43914;57.680;11.982;2023-03-26T03:25:59;98810.16;;;0.53;100.00
54872;BME280;43914;57.680;11.982;2023-03-26T03:28:24;98813.33;;;0.51;100.00
54872;BME280;43914;57.680;11.982;2023-03-26T03:30:50;98810.09;;;0.49;100.00
54872;BME280;43914;57.680;11.982;2023-03-26T03:33:22;98807.84;;;0.45;100.00
54872;BME280;43914;57.680;11.982;2023-03-26T03:35:48;98814.55;;;0.45;100.00
54872;BME280;43914;57.680;11.982;2023-03-26T03:38:16;98813.56;;;0.46;100.00
54872;BME280;43914;57.680;11.982;2023-03-26T03:40:42;98813.02;;;0.45;100.00
54872;BME280;43914;57.680;11.982;2023-03-26T03:43:08;98814.38;;;0.45;100.00
54872;BME280;43914;57.680;11.982;2023-03-26T03:45:34;98821.94;;;0.45;100.00
54872;BME280;43914;57.680;11.982;2023-03-26T03:47:59;98823.80;;;0.44;100.00
54872;BME280;43914;57.680;11.982;2023-03-26T03:50:25;98832.49;;;0.44;100.00
54872;BME280;43914;57.680;11.982;2023-03-26T03:52:51;98831.07;;;0.40;100.00
54872;BME280;43914;57.680;11.982;2023-03-26T03:55:17;98831.60;;;0.39;100.00
54872;BME280;43914;57.680;11.982;2023-03-26T03:57:43;98831.49;;;0.38;100.00
54872;BME280;43914;57.680;11.982;2023-03-26T04:00:12;98829.85;;;0.39;100.00
54872;BME280;43914;57.680;11.982;2023-03-26T04:02:38;98834.50;;;0.38;100.00
54872;BME280;43914;57.680;11.982;2023-03-26T04:05:07;98832.30;;;0.37;100.00
54872;BME280;43914;57.680;11.982;2023-03-26T04:07:33;98833.26;;;0.38;100.00
54872;BME280;43914;57.680;11.982;2023-03-26T04:09:59;98835.54;;;0.37;100.00
54872;BME280;43914;57.680;11.982;2023-03-26T04:12:27;98841.84;;;0.35;100.00
54872;BME280;43914;57.680;11.982;2023-03-26T04:14:53;98845.67;;;0.33;100.00
54872;BME280;43914;57.680;11.982;2023-03-26T04:17:19;98842.93;;;0.30;100.00
54872;BME280;43914;57.680;11.982;2023-03-26T04:19:51;98844.45;;;0.29;100.00
54872;BME280;43914;57.680;11.982;2023-03-26T04:22:20;98853.23;;;0.27;100.00
54872;BME280;43914;57.680;11.982;2023-03-26T04:24:46;98852.17;;;0.22;100.00
54872;BME280;43914;57.680;11.982;2023-03-26T04:27:16;98853.47;;;0.19;100.00
54872;BME280;43914;57.680;11.982;2023-03-26T04:29:47;98856.56;;;0.16;100.00
54872;BME280;43914;57.680;11.982;2023-03-26T04:32:24;98858.01;;;0.12;100.00
54872;BME280;43914;57.680;11.982;2023-03-26T04:34:56;98861.50;;;0.09;100.00
54872;BME280;43914;57.680;11.982;2023-03-26T04:37:30;98861.34;;;0.09;100.00
54872;BME280;43914;57.680;11.982;2023-03-26T04:40:03;98862.23;;;0.07;100.00
54872;BME280;43914;57.680;11.982;2023-03-26T04:42:35;98866.56;;;0.03;100.00
54872;BME280;43914;57.680;11.982;2023-03-26T04:45:05;98867.35;;;0.02;100.00
54872;BME280;43914;57.680;11.982;2023-03-26T04:47:31;98871.67;;;0.05;100.00
54872;BME280;43914;57.680;11.982;2023-03-26T04:50:02;98871.27;;;0.05;100.00
54872;BME280;43914;57.680;11.982;2023-03-26T04:52:29;98871.60;;;0.05;100.00
54872;BME280;43914;57.680;11.982;2023-03-26T04:54:54;98875.80;;;0.04;100.00
54872;BME280;43914;57.680;11.982;2023-03-26T04:57:26;98874.38;;;0.02;100.00
54872;BME280;43914;57.680;11.982;2023-03-26T04:59:53;98873.38;;;0.02;100.00
54872;BME280;43914;57.680;11.982;2023-03-26T05:02:19;98873.02;;;0.00;100.00
54872;BME280;43914;57.680;11.982;2023-03-26T05:04:44;98871.83;;;-0.00;100.00
54872;BME280;43914;57.680;11.982;2023-03-26T05:07:13;98872.67;;;-0.02;100.00
54872;BME280;43914;57.680;11.982;2023-03-26T05:09:41;98874.56;;;-0.03;100.00
54872;BME280;43914;57.680;11.982;2023-03-26T05:12:06;98878.85;;;-0.02;100.00
54872;BME280;43914;57.680;11.982;2023-03-26T05:14:32;98876.20;;;-0.04;100.00
54872;BME280;43914;57.680;11.982;2023-03-26T05:16:57;98873.63;;;-0.06;100.00
54872;BME280;43914;57.680;11.982;2023-03-26T05:19:23;98880.75;;;-0.10;100.00
54872;BME280;43914;57.680;11.982;2023-03-26T05:21:48;98880.80;;;-0.16;100.00
54872;BME280;43914;57.680;11.982;2023-03-26T05:24:14;98883.16;;;-0.20;100.00
54872;BME280;43914;57.680;11.982;2023-03-26T05:26:40;98883.45;;;-0.22;100.00
54872;BME280;43914;57.680;11.982;2023-03-26T05:29:05;98876.59;;;-0.26;100.00
54872;BME280;43914;57.680;11.982;2023-03-26T05:31:31;98884.31;;;-0.26;100.00
54872;BME280;43914;57.680;11.982;2023-03-26T05:33:57;98887.11;;;-0.25;100.00
54872;BME280;43914;57.680;11.982;2023-03-26T05:36:24;98885.92;;;-0.26;100.00
54872;BME280;43914;57.680;11.982;2023-03-26T05:38:52;98889.32;;;-0.26;100.00
54872;BME280;43914;57.680;11.982;2023-03-26T05:41:18;98891.27;;;-0.26;100.00
54872;BME280;43914;57.680;11.982;2023-03-26T05:43:43;98893.29;;;-0.27;100.00
54872;BME280;43914;57.680;11.982;2023-03-26T05:46:13;98896.02;;;-0.30;100.00
54872;BME280;43914;57.680;11.982;2023-03-26T05:48:39;98902.23;;;-0.32;100.00
54872;BME280;43914;57.680;11.982;2023-03-26T05:51:05;98903.44;;;-0.37;100.00
54872;BME280;43914;57.680;11.982;2023-03-26T05:53:32;98905.02;;;-0.40;100.00
54872;BME280;43914;57.680;11.982;2023-03-26T05:55:57;98901.84;;;-0.42;100.00
54872;BME280;43914;57.680;11.982;2023-03-26T05:58:33;98905.83;;;-0.43;100.00
54872;BME280;43914;57.680;11.982;2023-03-26T06:01:05;98910.80;;;-0.46;100.00
54872;BME280;43914;57.680;11.982;2023-03-26T06:03:36;98916.98;;;-0.44;100.00
54872;BME280;43914;57.680;11.982;2023-03-26T06:06:02;98914.73;;;-0.44;100.00
54872;BME280;43914;57.680;11.982;2023-03-26T06:08:30;98921.20;;;-0.45;100.00
54872;BME280;43914;57.680;11.982;2023-03-26T06:11:01;98923.65;;;-0.47;100.00
54872;BME280;43914;57.680;11.982;2023-03-26T06:13:27;98927.90;;;-0.48;100.00
54872;BME280;43914;57.680;11.982;2023-03-26T06:15:52;98925.58;;;-0.51;100.00
54872;BME280;43914;57.680;11.982;2023-03-26T06:18:18;98931.21;;;-0.54;100.00
54872;BME280;43914;57.680;11.982;2023-03-26T06:20:45;98929.46;;;-0.60;100.00
54872;BME280;43914;57.680;11.982;2023-03-26T06:23:11;98938.10;;;-0.65;100.00
54872;BME280;43914;57.680;11.982;2023-03-26T06:25:37;98944.17;;;-0.69;100.00
54872;BME280;43914;57.680;11.982;2023-03-26T06:28:03;98951.74;;;-0.75;100.00
54872;BME280;43914;57.680;11.982;2023-03-26T06:30:28;98954.84;;;-0.79;100.00
54872;BME280;43914;57.680;11.982;2023-03-26T06:32:54;98970.55;;;-0.83;100.00
54872;BME280;43914;57.680;11.982;2023-03-26T06:35:19;98973.61;;;-0.88;100.00
54872;BME280;43914;57.680;11.982;2023-03-26T06:37:45;98970.16;;;-0.92;100.00
54872;BME280;43914;57.680;11.982;2023-03-26T06:40:11;98976.52;;;-0.91;100.00
54872;BME280;43914;57.680;11.982;2023-03-26T06:42:36;98982.61;;;-0.90;100.00
54872;BME280;43914;57.680;11.982;2023-03-26T06:45:02;98982.71;;;-0.88;100.00
54872;BME280;43914;57.680;11.982;2023-03-26T06:47:28;98983.90;;;-0.87;100.00
54872;BME280;43914;57.680;11.982;2023-03-26T06:49:53;98990.14;;;-0.82;100.00
54872;BME280;43914;57.680;11.982;2023-03-26T06:52:19;98993.80;;;-0.80;100.00
54872;BME280;43914;57.680;11.982;2023-03-26T06:54:45;98989.34;;;-0.78;100.00
54872;BME280;43914;57.680;11.982;2023-03-26T06:57:10;98993.45;;;-0.75;100.00
54872;BME280;43914;57.680;11.982;2023-03-26T06:59:36;98997.66;;;-0.71;100.00
54872;BME280;43914;57.680;11.982;2023-03-26T07:02:01;98999.54;;;-0.72;100.00
54872;BME280;43914;57.680;11.982;2023-03-26T07:04:28;99004.45;;;-0.80;100.00
54872;BME280;43914;57.680;11.982;2023-03-26T07:06:53;99007.55;;;-0.80;100.00
54872;BME280;43914;57.680;11.982;2023-03-26T07:09:19;99009.49;;;-0.81;100.00
54872;BME280;43914;57.680;11.982;2023-03-26T07:11:44;99011.08;;;-0.81;100.00
54872;BME280;43914;57.680;11.982;2023-03-26T07:14:10;99009.30;;;-0.80;100.00
54872;BME280;43914;57.680;11.982;2023-03-26T07:16:35;99007.27;;;-0.85;100.00
54872;BME280;43914;57.680;11.982;2023-03-26T07:19:00;99016.39;;;-0.90;100.00
54872;BME280;43914;57.680;11.982;2023-03-26T07:21:26;99019.13;;;-0.93;100.00
54872;BME280;43914;57.680;11.982;2023-03-26T07:23:52;99020.90;;;-0.94;100.00
54872;BME280;43914;57.680;11.982;2023-03-26T07:29:40;99018.02;;;-0.87;100.00
54872;BME280;43914;57.680;11.982;2023-03-26T07:37:54;99019.82;;;-0.71;100.00
54872;BME280;43914;57.680;11.982;2023-03-26T07:40:56;99020.69;;;-0.69;100.00
54872;BME280;43914;57.680;11.982;2023-03-26T07:46:12;99030.80;;;-0.65;100.00
54872;BME280;43914;57.680;11.982;2023-03-26T07:48:42;99035.63;;;-0.64;100.00
54872;BME280;43914;57.680;11.982;2023-03-26T07:51:09;99036.88;;;-0.62;100.00
54872;BME280;43914;57.680;11.982;2023-03-26T07:53:35;99035.65;;;-0.57;100.00
54872;BME280;43914;57.680;11.982;2023-03-26T08:01:45;99024.91;;;-0.55;100.00
54872;BME280;43914;57.680;11.982;2023-03-26T08:11:18;99029.43;;;-0.28;100.00
54872;BME280;43914;57.680;11.982;2023-03-26T08:18:58;99034.73;;;-0.20;100.00
54872;BME280;43914;57.680;11.982;2023-03-26T08:21:30;99039.98;;;-0.20;100.00
54872;BME280;43914;57.680;11.982;2023-03-26T08:29:28;99037.45;;;-0.10;100.00
54872;BME280;43914;57.680;11.982;2023-03-26T08:31:59;99037.55;;;-0.13;100.00
54872;BME280;43914;57.680;11.982;2023-03-26T08:34:26;99039.52;;;-0.15;100.00
54872;BME280;43914;57.680;11.982;2023-03-26T08:36:51;99041.34;;;-0.19;100.00
54872;BME280;43914;57.680;11.982;2023-03-26T08:39:17;99047.85;;;-0.15;100.00
54872;BME280;43914;57.680;11.982;2023-03-26T09:13:03;99098.95;;;0.10;100.00
54872;BME280;43914;57.680;11.982;2023-03-26T09:26:44;99115.42;;;0.36;100.00
54872;BME280;43914;57.680;11.982;2023-03-26T09:32:32;99122.00;;;0.35;100.00
54872;BME280;43914;57.680;11.982;2023-03-26T09:37:56;99129.35;;;0.32;99.98
54872;BME280;43914;57.680;11.982;2023-03-26T09:40:51;99134.60;;;0.32;99.79
54872;BME280;43914;57.680;11.982;2023-03-26T10:06:22;99155.35;;;0.79;98.54
54872;BME280;43914;57.680;11.982;2023-03-26T10:09:09;99161.54;;;0.82;96.87
54872;BME280;43914;57.680;11.982;2023-03-26T10:22:23;99167.84;;;0.88;92.46
54872;BME280;43914;57.680;11.982;2023-03-26T10:33:37;99173.91;;;0.87;92.63
54872;BME280;43914;57.680;11.982;2023-03-26T10:36:24;99170.83;;;0.85;93.44
54872;BME280;43914;57.680;11.982;2023-03-26T10:53:45;99187.15;;;0.99;93.31
54872;BME280;43914;57.680;11.982;2023-03-26T10:56:31;99193.81;;;0.93;93.55
54872;BME280;43914;57.680;11.982;2023-03-26T10:59:04;99197.28;;;0.88;94.53
54872;BME280;43914;57.680;11.982;2023-03-26T11:12:06;99218.31;;;0.56;93.23
54872;BME280;43914;57.680;11.982;2023-03-26T11:19:49;99228.23;;;0.65;92.11
54872;BME280;43914;57.680;11.982;2023-03-26T11:28:02;99243.52;;;0.39;92.23
54872;BME280;43914;57.680;11.982;2023-03-26T11:30:57;99236.17;;;0.27;92.74
54872;BME280;43914;57.680;11.982;2023-03-26T11:33:31;99243.32;;;0.23;93.71
54872;BME280;43914;57.680;11.982;2023-03-26T11:36:04;99241.63;;;0.15;92.75
54872;BME280;43914;57.680;11.982;2023-03-26T11:38:34;99242.20;;;0.15;94.97
54872;BME280;43914;57.680;11.982;2023-03-26T11:41:22;99246.15;;;0.21;95.65
54872;BME280;43914;57.680;11.982;2023-03-26T11:43:56;99247.23;;;0.16;92.92
54872;BME280;43914;57.680;11.982;2023-03-26T11:46:24;99246.70;;;0.12;93.24
54872;BME280;43914;57.680;11.982;2023-03-26T11:48:58;99241.20;;;0.05;93.77
54872;BME280;43914;57.680;11.982;2023-03-26T11:51:32;99259.16;;;0.14;94.58
54872;BME280;43914;57.680;11.982;2023-03-26T11:53:59;99263.29;;;0.17;94.11
54872;BME280;43914;57.680;11.982;2023-03-26T11:56:56;99262.50;;;0.18;94.53
54872;BME280;43914;57.680;11.982;2023-03-26T12:01:57;99265.85;;;0.20;93.86
54872;BME280;43914;57.680;11.982;2023-03-26T12:04:33;99268.11;;;0.18;93.53
54872;BME280;43914;57.680;11.982;2023-03-26T12:09:36;99274.85;;;0.09;93.49
54872;BME280;43914;57.680;11.982;2023-03-26T12:12:03;99278.05;;;0.05;93.20
54872;BME280;43914;57.680;11.982;2023-03-26T12:14:32;99282.54;;;0.04;94.03
54872;BME280;43914;57.680;11.982;2023-03-26T12:17:05;99283.89;;;0.05;94.88
54872;BME280;43914;57.680;11.982;2023-03-26T12:19:40;99289.05;;;0.10;95.15
54872;BME280;43914;57.680;11.982;2023-03-26T12:25:21;99294.25;;;0.03;92.84
54872;BME280;43914;57.680;11.982;2023-03-26T12:30:25;99294.31;;;0.06;92.13
54872;BME280;43914;57.680;11.982;2023-03-26T12:32:54;99296.63;;;0.08;92.47
54872;BME280;43914;57.680;11.982;2023-03-26T12:35:26;99296.90;;;0.16;92.33
54872;BME280;43914;57.680;11.982;2023-03-26T12:37:55;99299.92;;;0.16;90.94
54872;BME280;43914;57.680;11.982;2023-03-26T12:40:32;99301.08;;;0.18;92.26
54872;BME280;43914;57.680;11.982;2023-03-26T12:43:05;99304.20;;;0.20;92.35
54872;BME280;43914;57.680;11.982;2023-03-26T12:45:48;99307.27;;;0.20;91.26
54872;BME280;43914;57.680;11.982;2023-03-26T12:48:15;99313.08;;;0.23;92.23
54872;BME280;43914;57.680;11.982;2023-03-26T13:25:03;99360.52;;;-0.34;92.41
54872;BME280;43914;57.680;11.982;2023-03-26T13:33:25;99367.58;;;-0.38;92.04
54872;BME280;43914;57.680;11.982;2023-03-26T13:38:39;99376.70;;;-0.45;93.20
54872;BME280;43914;57.680;11.982;2023-03-26T13:47:09;99381.66;;;-0.76;93.54
54872;BME280;43914;57.680;11.982;2023-03-26T13:49:49;99385.62;;;-0.80;93.93
54872;BME280;43914;57.680;11.982;2023-03-26T13:57:23;99395.84;;;-0.79;95.38
54872;BME280;43914;57.680;11.982;2023-03-26T14:02:45;99405.34;;;-0.88;92.59
54872;BME280;43914;57.680;11.982;2023-03-26T14:05:23;99403.46;;;-0.91;93.56
54872;BME280;43914;57.680;11.982;2023-03-26T14:10:23;99411.16;;;-0.89;93.28
54872;BME280;43914;57.680;11.982;2023-03-26T14:15:45;99418.26;;;-0.83;93.10
54872;BME280;43914;57.680;11.982;2023-03-26T14:29:52;99416.48;;;-0.56;92.17
54872;BME280;43914;57.680;11.982;2023-03-26T14:35:21;99420.18;;;-0.53;91.13
54872;BME280;43914;57.680;11.982;2023-03-26T14:54:38;99443.84;;;-0.79;90.35
54872;BME280;43914;57.680;11.982;2023-03-26T14:57:29;99444.08;;;-0.83;90.27
54872;BME280;43914;57.680;11.982;2023-03-26T15:02:56;99453.27;;;-0.93;89.80
54872;BME280;43914;57.680;11.982;2023-03-26T15:05:53;99453.88;;;-0.96;90.17
54872;BME280;43914;57.680;11.982;2023-03-26T15:14:39;99456.05;;;-1.03;89.45
54872;BME280;43914;57.680;11.982;2023-03-26T15:31:54;99468.73;;;-1.04;89.37
54872;BME280;43914;57.680;11.982;2023-03-26T15:43:23;99476.53;;;-0.96;86.53
54872;BME280;43914;57.680;11.982;2023-03-26T15:57:35;99492.96;;;-0.91;84.60
54872;BME280;43914;57.680;11.982;2023-03-26T16:00:22;99494.05;;;-0.87;85.46
54872;BME280;43914;57.680;11.982;2023-03-26T16:11:51;99507.70;;;-0.58;86.27
54872;BME280;43914;57.680;11.982;2023-03-26T16:16:50;99503.29;;;-0.67;83.46
54872;BME280;43914;57.680;11.982;2023-03-26T16:22:11;99514.68;;;-0.67;84.49
54872;BME280;43914;57.680;11.982;2023-03-26T16:24:44;99518.84;;;-0.66;83.77
54872;BME280;43914;57.680;11.982;2023-03-26T16:33:19;99528.36;;;-0.66;83.88
54872;BME280;43914;57.680;11.982;2023-03-26T16:41:18;99540.51;;;-0.80;83.91
54872;BME280;43914;57.680;11.982;2023-03-26T16:46:27;99550.20;;;-0.80;85.57
54872;BME280;43914;57.680;11.982;2023-03-26T16:49:14;99552.07;;;-0.75;85.90
54872;BME280;43914;57.680;11.982;2023-03-26T16:57:29;99560.04;;;-0.86;84.92
54872;BME280;43914;57.680;11.982;2023-03-26T17:02:47;99565.02;;;-0.87;85.59
54872;BME280;43914;57.680;11.982;2023-03-26T17:05:36;99571.45;;;-0.83;86.34
54872;BME280;43914;57.680;11.982;2023-03-26T17:08:18;99571.13;;;-0.86;86.36
54872;BME280;43914;57.680;11.982;2023-03-26T17:10:59;99574.87;;;-0.82;86.58
54872;BME280;43914;57.680;11.982;2023-03-26T17:19:32;99583.33;;;-0.79;88.15
54872;BME280;43914;57.680;11.982;2023-03-26T17:30:00;99593.90;;;-0.87;87.49
54872;BME280;43914;57.680;11.982;2023-03-26T17:33:31;99594.67;;;-0.85;88.20
54872;BME280;43914;57.680;11.982;2023-03-26T17:35:41;99597.50;;;-0.88;88.70
54872;BME280;43914;57.680;11.982;2023-03-26T17:40:55;99603.80;;;-0.83;88.71
54872;BME280;43914;57.680;11.982;2023-03-26T17:51:43;99616.80;;;-0.89;88.53
54872;BME280;43914;57.680;11.982;2023-03-26T17:56:50;99626.58;;;-0.92;88.02
54872;BME280;43914;57.680;11.982;2023-03-26T17:59:25;99632.19;;;-0.94;88.03
54872;BME280;43914;57.680;11.982;2023-03-26T18:02:02;99628.40;;;-0.95;88.59
54872;BME280;43914;57.680;11.982;2023-03-26T18:04:35;99631.96;;;-0.94;88.33
54872;BME280;43914;57.680;11.982;2023-03-26T18:07:05;99633.97;;;-0.92;88.31
54872;BME280;43914;57.680;11.982;2023-03-26T18:10:05;99636.17;;;-0.94;87.56
54872;BME280;43914;57.680;11.982;2023-03-26T18:18:32;99640.98;;;-1.08;86.44
54872;BME280;43914;57.680;11.982;2023-03-26T18:21:02;99643.94;;;-1.06;87.10
54872;BME280;43914;57.680;11.982;2023-03-26T18:23:35;99647.59;;;-1.09;87.22
54872;BME280;43914;57.680;11.982;2023-03-26T18:26:32;99647.91;;;-1.09;87.49
54872;BME280;43914;57.680;11.982;2023-03-26T18:31:45;99650.90;;;-1.07;86.85
54872;BME280;43914;57.680;11.982;2023-03-26T18:34:14;99646.91;;;-1.12;86.89
54872;BME280;43914;57.680;11.982;2023-03-26T18:37:30;99645.56;;;-1.14;86.78
54872;BME280;43914;57.680;11.982;2023-03-26T18:39:30;99642.88;;;-1.14;87.18
54872;BME280;43914;57.680;11.982;2023-03-26T18:41:56;99649.15;;;-1.13;87.69
54872;BME280;43914;57.680;11.982;2023-03-26T18:44:22;99655.55;;;-1.14;87.04
54872;BME280;43914;57.680;11.982;2023-03-26T18:46:51;99659.30;;;-1.15;87.30
54872;BME280;43914;57.680;11.982;2023-03-26T18:49:19;99662.70;;;-1.11;88.16
54872;BME280;43914;57.680;11.982;2023-03-26T18:51:45;99665.98;;;-1.06;88.52
54872;BME280;43914;57.680;11.982;2023-03-26T18:54:20;99669.05;;;-1.04;88.30
54872;BME280;43914;57.680;11.982;2023-03-26T18:56:47;99668.12;;;-1.03;88.47
54872;BME280;43914;57.680;11.982;2023-03-26T18:59:39;99666.97;;;-1.00;89.07
54872;BME280;43914;57.680;11.982;2023-03-26T19:02:12;99659.44;;;-1.06;88.08
54872;BME280;43914;57.680;11.982;2023-03-26T19:04:40;99666.69;;;-1.03;87.94
54872;BME280;43914;57.680;11.982;2023-03-26T19:07:13;99663.90;;;-1.05;88.08
54872;BME280;43914;57.680;11.982;2023-03-26T19:09:41;99667.01;;;-1.06;88.11
54872;BME280;43914;57.680;11.982;2023-03-26T19:12:22;99654.28;;;-1.18;88.31
54872;BME280;43914;57.680;11.982;2023-03-26T19:15:04;99667.70;;;-1.12;88.47
54872;BME280;43914;57.680;11.982;2023-03-26T19:17:36;99668.33;;;-1.18;88.59
54872;BME280;43914;57.680;11.982;2023-03-26T19:20:04;99670.38;;;-1.21;89.11
54872;BME280;43914;57.680;11.982;2023-03-26T19:22:34;99668.98;;;-1.23;89.22
54872;BME280;43914;57.680;11.982;2023-03-26T19:25:01;99671.20;;;-1.24;89.63
54872;BME280;43914;57.680;11.982;2023-03-26T19:27:27;99674.33;;;-1.24;89.69
54872;BME280;43914;57.680;11.982;2023-03-26T19:29:53;99674.71;;;-1.26;89.68
54872;BME280;43914;57.680;11.982;2023-03-26T19:32:26;99676.42;;;-1.28;90.07
54872;BME280;43914;57.680;11.982;2023-03-26T19:34:52;99678.70;;;-1.30;90.42
54872;BME280;43914;57.680;11.982;2023-03-26T19:37:23;99679.00;;;-1.31;90.64
54872;BME280;43914;57.680;11.982;2023-03-26T19:42:36;99683.55;;;-1.31;91.44
54872;BME280;43914;57.680;11.982;2023-03-26T19:45:03;99687.36;;;-1.30;91.67
54872;BME280;43914;57.680;11.982;2023-03-26T19:47:38;99684.38;;;-1.35;90.78
54872;BME280;43914;57.680;11.982;2023-03-26T19:55:39;99693.48;;;-1.42;91.26